WAW weather

Warsaw Chopin Airport
Warsaw, Masovia, Poland

Public forecast

Using degrees Celsius for public forecast. Weather courtesy of forecast.io.

Current aviation weather report (METAR) for Warsaw Chopin Airport

Retrieved 2019/10/16 20:30 UTC (6 minutes ago):

EPWA 162030Z 20004KT CAVOK 11/09 Q1014 NOSIG

Aviation forecast (TAF) for Warsaw Chopin Airport

Retrieved 2019/10/16 21:39 UTC (0 seconds ago):

TAF EPWA 162030Z 1621/1721 21010KT CAVOK BECMG 1711/1713 15006KT